Time;durP1;ratioP1;P1;durP2;ratioP2;P2;SDS_P1;SDS_P2;PMS_P1;PMS_P2;Temp;Humidity;BMP_temperature;BMP_pressure;BME280_temperature;BME280_humidity;BME280_pressure;Samples;Min_cycle;Max_cycle;Signal;HPM_P1;HPM_P2
2022/12/08 00:02:02;;;;;;;;;;;3.30;99.90;;;;;;5074832;28;19931;-65
2022/12/08 00:04:28;;;;;;;;;;;3.30;99.90;;;;;;5074967;28;19908;-65
2022/12/08 00:09:40;;;;;;;;;;;3.20;99.90;;;;;;5058729;28;19940;-66
2022/12/08 00:12:07;;;;;;;;;;;3.10;99.90;;;;;;5074845;28;19963;-66
2022/12/08 00:14:35;;;;;;;;;;;3.10;99.90;;;;;;5074856;28;19944;-65
2022/12/08 00:17:02;;;;;;;;;;;3.10;99.90;;;;;;5074781;28;20325;-65
2022/12/08 00:19:28;;;;;;;;;;;3.00;99.90;;;;;;5074748;28;19958;-66
2022/12/08 00:21:53;;;;;;;;;;;2.90;99.90;;;;;;5074654;28;19908;-65
2022/12/08 00:24:19;;;;;;;;;;;2.90;99.90;;;;;;5074169;28;19920;-65
2022/12/08 00:26:45;;;;;;;;;;;3.00;99.90;;;;;;5074652;28;19962;-65
2022/12/08 00:29:11;;;;;;;;;;;3.00;99.90;;;;;;5074288;28;19912;-66
2022/12/08 00:31:37;;;;;;;;;;;2.90;99.90;;;;;;5074264;28;19919;-66
2022/12/08 00:34:02;;;;;;;;;;;3.00;99.90;;;;;;5074541;28;20298;-66
2022/12/08 00:36:28;;;;;;;;;;;3.00;99.90;;;;;;5074413;28;20282;-66
2022/12/08 00:38:54;;;;;;;;;;;3.00;99.90;;;;;;5074405;28;20290;-66
2022/12/08 00:44:06;;;;;;;;;;;3.00;99.90;;;;;;5073831;28;19909;-65
2022/12/08 00:46:32;;;;;;;;;;;3.00;99.90;;;;;;5074208;28;20382;-65
2022/12/08 00:48:57;;;;;;;;;;;3.10;99.90;;;;;;5074241;28;19909;-65
2022/12/08 00:51:23;;;;;;;;;;;3.20;99.90;;;;;;5074169;28;19908;-65
2022/12/08 00:53:48;;;;;;;;;;;3.20;99.90;;;;;;5074172;28;19908;-65
2022/12/08 00:56:14;;;;;;;;;;;3.20;99.90;;;;;;5074134;28;20395;-65
2022/12/08 00:58:39;;;;;;;;;;;3.20;99.90;;;;;;5073833;28;19909;-65
2022/12/08 01:01:13;;;;;;;;;;;3.20;99.90;;;;;;5074103;28;19915;-65
2022/12/08 01:03:39;;;;;;;;;;;3.30;99.90;;;;;;5074061;28;20374;-65
2022/12/08 01:06:05;;;;;;;;;;;3.30;99.90;;;;;;5073695;28;19917;-65
2022/12/08 01:08:30;;;;;;;;;;;3.30;99.90;;;;;;5056126;28;19931;-65
2022/12/08 01:10:56;;;;;;;;;;;3.30;99.90;;;;;;5073765;28;19909;-65
2022/12/08 01:13:21;;;;;;;;;;;3.30;99.90;;;;;;5073715;28;19909;-65
2022/12/08 01:15:47;;;;;;;;;;;3.30;99.90;;;;;;5073672;28;19920;-65
2022/12/08 01:18:12;;;;;;;;;;;3.30;99.90;;;;;;5073910;28;19912;-65
2022/12/08 01:20:38;;;;;;;;;;;3.30;99.90;;;;;;5055508;28;19908;-65
2022/12/08 01:23:03;;;;;;;;;;;3.40;99.90;;;;;;5073893;28;19909;-66
2022/12/08 01:25:29;;;;;;;;;;;3.40;99.90;;;;;;5073290;28;19921;-65
2022/12/08 01:27:54;;;;;;;;;;;3.40;99.90;;;;;;5055946;28;19909;-65
2022/12/08 01:30:20;;;;;;;;;;;3.50;99.90;;;;;;5073616;28;19908;-65
2022/12/08 01:32:45;;;;;;;;;;;3.50;99.90;;;;;;5073462;28;20019;-65
2022/12/08 01:35:12;;;;;;;;;;;3.50;99.90;;;;;;5073752;28;19915;-65
2022/12/08 01:37:38;;;;;;;;;;;3.50;99.90;;;;;;5055421;28;20408;-65
2022/12/08 01:40:03;;;;;;;;;;;3.60;99.90;;;;;;5073475;28;19908;-65
2022/12/08 01:42:31;;;;;;;;;;;3.60;99.90;;;;;;5073663;28;19909;-65
2022/12/08 01:44:58;;;;;;;;;;;3.70;99.90;;;;;;5073307;28;20420;-65
2022/12/08 01:47:25;;;;;;;;;;;3.70;99.90;;;;;;5073644;28;20382;-65
2022/12/08 01:49:50;;;;;;;;;;;3.80;99.90;;;;;;5073388;28;19999;-65
2022/12/08 01:52:21;;;;;;;;;;;3.80;99.90;;;;;;5073333;28;19956;-65
2022/12/08 01:54:49;;;;;;;;;;;3.80;99.90;;;;;;5073556;28;19918;-65
2022/12/08 01:57:17;;;;;;;;;;;3.80;99.90;;;;;;5055484;28;20310;-65
2022/12/08 01:59:47;;;;;;;;;;;3.90;99.90;;;;;;5073182;28;19909;-66
2022/12/08 02:02:12;;;;;;;;;;;3.90;99.90;;;;;;5055267;28;19915;-65
2022/12/08 02:04:38;;;;;;;;;;;3.90;99.90;;;;;;5073385;28;19908;-65
2022/12/08 02:07:04;;;;;;;;;;;3.90;99.90;;;;;;5073201;28;19910;-65
2022/12/08 02:09:29;;;;;;;;;;;3.90;99.90;;;;;;5073157;28;19915;-65
2022/12/08 02:11:55;;;;;;;;;;;4.00;99.90;;;;;;5073169;28;20007;-65
2022/12/08 02:14:21;;;;;;;;;;;3.90;99.90;;;;;;5073079;28;19909;-65
2022/12/08 02:19:37;;;;;;;;;;;4.00;99.90;;;;;;5091273;27;19913;-65
2022/12/08 02:22:10;;;;;;;;;;;3.90;99.90;;;;;;5091477;28;20396;-64
2022/12/08 02:24:37;;;;;;;;;;;4.00;99.90;;;;;;5091178;28;19954;-65
2022/12/08 02:27:22;;;;;;;;;;;4.00;99.90;;;;;;5091003;28;19962;-65
2022/12/08 02:30:08;;;;;;;;;;;4.00;99.90;;;;;;5091047;28;20366;-64
2022/12/08 02:32:54;;;;;;;;;;;4.00;99.90;;;;;;5090957;28;19915;-65
2022/12/08 02:35:40;;;;;;;;;;;4.00;99.90;;;;;;5090874;28;19958;-65
2022/12/08 02:38:11;;;;;;;;;;;4.00;99.90;;;;;;5090877;28;20370;-65
2022/12/08 02:40:43;;;;;;;;;;;4.00;99.90;;;;;;5090849;28;19912;-64
2022/12/08 02:43:13;;;;;;;;;;;4.00;99.90;;;;;;5091034;28;20421;-65
2022/12/08 02:45:42;;;;;;;;;;;4.00;99.90;;;;;;5090738;28;19908;-64
2022/12/08 02:48:09;;;;;;;;;;;4.00;99.90;;;;;;5090963;28;19909;-65
2022/12/08 02:50:34;;;;;;;;;;;4.00;99.90;;;;;;5123701;28;19956;-64
2022/12/08 02:53:01;;;;;;;;;;;4.00;99.90;;;;;;5090896;28;19931;-64
2022/12/08 02:55:28;;;;;;;;;;;4.00;99.90;;;;;;5089342;28;19908;-64
2022/12/08 02:57:59;;;;;;;;;;;4.10;99.90;;;;;;5090488;28;19913;-64
2022/12/08 03:00:26;;;;;;;;;;;4.10;99.90;;;;;;5090435;28;19952;-64
2022/12/08 03:02:58;;;;;;;;;;;4.10;99.90;;;;;;5089203;28;19912;-65
2022/12/08 03:05:29;;;;;;;;;;;4.10;99.90;;;;;;5123269;28;20266;-64
2022/12/08 03:08:15;;;;;;;;;;;4.10;99.90;;;;;;5090416;28;19912;-64
2022/12/08 03:11:00;;;;;;;;;;;4.10;99.90;;;;;;5090294;28;19936;-64
2022/12/08 03:13:30;;;;;;;;;;;4.10;99.90;;;;;;5090238;28;20289;-65
2022/12/08 03:15:55;;;;;;;;;;;4.10;99.90;;;;;;5090186;28;19955;-64
2022/12/08 03:18:23;;;;;;;;;;;4.10;99.90;;;;;;5101296;28;19923;-64
2022/12/08 03:20:49;;;;;;;;;;;4.10;99.90;;;;;;5110700;28;20289;-64
2022/12/08 03:23:16;;;;;;;;;;;4.10;99.90;;;;;;5110635;28;19908;-64
2022/12/08 03:25:59;;;;;;;;;;;4.10;99.90;;;;;;5110605;28;20299;-64
2022/12/08 03:28:24;;;;;;;;;;;4.10;99.90;;;;;;5110647;28;20391;-65
2022/12/08 03:30:52;;;;;;;;;;;4.10;99.90;;;;;;5096598;28;19908;-65
2022/12/08 03:33:22;;;;;;;;;;;4.10;99.90;;;;;;5096873;28;19951;-65
2022/12/08 03:35:47;;;;;;;;;;;4.10;99.90;;;;;;5096850;28;19915;-65
2022/12/08 03:38:14;;;;;;;;;;;4.10;99.90;;;;;;5096669;28;20281;-64
2022/12/08 03:40:40;;;;;;;;;;;4.10;99.90;;;;;;5096690;28;20280;-65
2022/12/08 03:43:05;;;;;;;;;;;4.10;99.90;;;;;;5096410;28;19994;-65
2022/12/08 03:45:31;;;;;;;;;;;4.10;99.90;;;;;;5096333;28;19908;-65
2022/12/08 03:47:56;;;;;;;;;;;4.10;99.90;;;;;;5096294;28;19955;-65
2022/12/08 03:50:22;;;;;;;;;;;4.10;99.90;;;;;;5096484;28;19909;-64
2022/12/08 03:52:47;;;;;;;;;;;4.10;99.90;;;;;;5096232;28;20487;-64
2022/12/08 03:55:13;;;;;;;;;;;4.10;99.90;;;;;;5096117;28;19931;-64
2022/12/08 03:57:39;;;;;;;;;;;4.00;99.90;;;;;;5096287;28;19916;-64
2022/12/08 04:00:05;;;;;;;;;;;4.10;99.90;;;;;;5096103;28;19908;-65
2022/12/08 04:02:31;;;;;;;;;;;4.00;99.90;;;;;;5096305;28;20377;-64
2022/12/08 04:04:56;;;;;;;;;;;4.00;99.90;;;;;;5095948;28;19962;-65
2022/12/08 04:07:22;;;;;;;;;;;4.00;99.90;;;;;;5095949;28;19931;-65
2022/12/08 04:09:47;;;;;;;;;;;4.00;99.90;;;;;;5095894;28;19955;-65
2022/12/08 04:12:12;;;;;;;;;;;4.00;99.90;;;;;;5095815;28;19912;-65
2022/12/08 04:14:38;;;;;;;;;;;4.00;99.90;;;;;;5096034;28;19912;-65
2022/12/08 04:17:03;;;;;;;;;;;4.00;99.90;;;;;;5095520;28;19973;-65
2022/12/08 04:19:29;;;;;;;;;;;4.00;99.90;;;;;;5095945;28;19912;-65
2022/12/08 04:21:54;;;;;;;;;;;4.00;99.90;;;;;;5095929;28;19908;-65
2022/12/08 04:24:20;;;;;;;;;;;4.00;99.90;;;;;;5095866;28;19987;-65
2022/12/08 04:26:45;;;;;;;;;;;3.90;99.90;;;;;;5095573;28;20388;-65
2022/12/08 04:29:11;;;;;;;;;;;3.90;99.90;;;;;;5095496;28;20013;-65
2022/12/08 04:31:36;;;;;;;;;;;3.90;99.90;;;;;;5095489;28;19978;-65
2022/12/08 04:34:01;;;;;;;;;;;3.90;99.90;;;;;;5077362;28;20401;-65
2022/12/08 04:36:27;;;;;;;;;;;3.90;99.90;;;;;;5095368;28;19908;-65
2022/12/08 04:38:53;;;;;;;;;;;3.90;99.90;;;;;;5095526;28;19961;-65
2022/12/08 04:41:18;;;;;;;;;;;3.90;99.90;;;;;;5094571;28;19908;-65
2022/12/08 04:43:44;;;;;;;;;;;3.90;99.90;;;;;;5095457;28;19915;-65
2022/12/08 04:46:09;;;;;;;;;;;3.90;99.90;;;;;;5095431;28;19908;-65
2022/12/08 04:48:36;;;;;;;;;;;3.90;99.90;;;;;;5095425;28;19908;-65
2022/12/08 04:51:01;;;;;;;;;;;3.90;99.90;;;;;;5095066;28;19908;-65
2022/12/08 04:53:27;;;;;;;;;;;3.90;99.90;;;;;;5095304;28;19931;-65
2022/12/08 04:55:52;;;;;;;;;;;3.90;99.90;;;;;;5095299;28;19908;-65
2022/12/08 04:58:18;;;;;;;;;;;3.90;99.90;;;;;;5095181;28;20383;-65
2022/12/08 05:00:45;;;;;;;;;;;3.90;99.90;;;;;;5095172;28;19912;-64
2022/12/08 05:03:10;;;;;;;;;;;3.90;99.90;;;;;;5095118;28;20281;-65
2022/12/08 05:05:36;;;;;;;;;;;3.80;99.90;;;;;;5094831;28;19915;-66
2022/12/08 05:08:01;;;;;;;;;;;3.90;99.90;;;;;;5095023;28;19908;-66
2022/12/08 05:10:27;;;;;;;;;;;3.80;99.90;;;;;;5094985;28;19908;-65
2022/12/08 05:12:53;;;;;;;;;;;3.80;99.90;;;;;;5094940;28;19997;-65
2022/12/08 05:15:18;;;;;;;;;;;3.80;99.90;;;;;;5094727;28;19915;-66
2022/12/08 05:17:43;;;;;;;;;;;3.80;99.90;;;;;;5094467;28;19920;-66
2022/12/08 05:20:09;;;;;;;;;;;3.80;99.90;;;;;;5094531;28;19994;-66
2022/12/08 05:22:35;;;;;;;;;;;3.80;99.90;;;;;;5094561;28;20384;-66
2022/12/08 05:25:00;;;;;;;;;;;3.80;99.90;;;;;;5094692;28;20277;-66
2022/12/08 05:27:26;;;;;;;;;;;3.80;99.90;;;;;;5094693;28;19916;-66
2022/12/08 05:29:51;;;;;;;;;;;3.80;99.90;;;;;;5094663;28;19912;-66
2022/12/08 05:32:17;;;;;;;;;;;3.80;99.90;;;;;;5094617;28;19944;-65
2022/12/08 05:34:42;;;;;;;;;;;3.80;99.90;;;;;;5094259;28;20401;-66
2022/12/08 05:37:07;;;;;;;;;;;3.80;99.90;;;;;;5094401;28;19966;-66
2022/12/08 05:39:33;;;;;;;;;;;3.90;99.90;;;;;;5094487;28;19909;-66
2022/12/08 05:41:58;;;;;;;;;;;3.80;99.90;;;;;;5094206;28;19918;-66
2022/12/08 05:44:24;;;;;;;;;;;3.90;99.90;;;;;;5094139;28;20369;-66
2022/12/08 05:46:50;;;;;;;;;;;3.90;99.90;;;;;;5094033;28;19977;-66
2022/12/08 05:49:15;;;;;;;;;;;3.90;99.90;;;;;;5094323;28;19951;-66
2022/12/08 05:51:41;;;;;;;;;;;3.90;99.90;;;;;;5094010;28;19914;-66
2022/12/08 05:54:06;;;;;;;;;;;3.90;99.90;;;;;;5093796;28;19915;-66
2022/12/08 05:56:32;;;;;;;;;;;3.80;99.90;;;;;;5093986;28;19908;-65
2022/12/08 05:58:57;;;;;;;;;;;3.80;99.90;;;;;;5094107;28;19912;-66
2022/12/08 06:01:24;;;;;;;;;;;3.90;99.90;;;;;;5093868;28;20417;-65
2022/12/08 06:03:50;;;;;;;;;;;3.90;99.90;;;;;;5094108;28;19916;-65
2022/12/08 06:06:16;;;;;;;;;;;3.90;99.90;;;;;;5094071;28;20323;-66
2022/12/08 06:08:41;;;;;;;;;;;3.80;99.90;;;;;;5094084;28;19998;-65
2022/12/08 06:11:07;;;;;;;;;;;3.80;99.90;;;;;;5094013;28;19939;-66
2022/12/08 06:13:32;;;;;;;;;;;3.80;99.90;;;;;;5093951;28;19908;-65
2022/12/08 06:16:05;;;;;;;;;;;3.80;99.90;;;;;;5093690;28;19909;-66
2022/12/08 06:18:31;;;;;;;;;;;3.80;99.90;;;;;;5093482;28;20306;-65
2022/12/08 06:21:05;;;;;;;;;;;3.90;99.90;;;;;;5093915;28;19908;-66
2022/12/08 06:23:30;;;;;;;;;;;3.80;99.90;;;;;;5093893;28;19908;-66
2022/12/08 06:26:00;;;;;;;;;;;3.80;99.90;;;;;;5093567;28;19909;-66
2022/12/08 06:28:26;;;;;;;;;;;3.80;99.90;;;;;;5093918;28;20011;-66
2022/12/08 06:30:51;;;;;;;;;;;3.80;99.90;;;;;;5093893;28;20353;-65
2022/12/08 06:33:17;;;;;;;;;;;3.80;99.90;;;;;;5093825;28;19908;-66
2022/12/08 06:35:42;;;;;;;;;;;3.70;99.90;;;;;;5093518;28;19915;-66
2022/12/08 06:38:07;;;;;;;;;;;3.70;99.90;;;;;;5093445;28;20018;-66
2022/12/08 06:40:33;;;;;;;;;;;3.70;99.90;;;;;;5093486;28;19915;-66
2022/12/08 06:42:58;;;;;;;;;;;3.70;99.90;;;;;;5093456;28;19937;-65
2022/12/08 06:45:24;;;;;;;;;;;3.70;99.90;;;;;;5093516;28;19946;-66
2022/12/08 06:47:49;;;;;;;;;;;3.70;99.90;;;;;;5093424;28;20284;-66
2022/12/08 06:50:15;;;;;;;;;;;3.70;99.90;;;;;;5093435;28;20059;-65
2022/12/08 06:52:41;;;;;;;;;;;3.70;99.90;;;;;;5093335;28;20009;-66
2022/12/08 06:55:07;;;;;;;;;;;3.70;99.90;;;;;;5093637;28;19909;-65
2022/12/08 06:57:33;;;;;;;;;;;3.70;99.90;;;;;;5093121;28;19922;-65
2022/12/08 06:59:58;;;;;;;;;;;3.70;99.90;;;;;;5092177;28;20377;-66
2022/12/08 07:02:24;;;;;;;;;;;3.70;99.90;;;;;;5076301;28;20041;-66
2022/12/08 07:04:49;;;;;;;;;;;3.70;99.90;;;;;;5074423;28;19909;-66
2022/12/08 07:07:15;;;;;;;;;;;3.70;99.90;;;;;;5076647;28;19915;-65
2022/12/08 07:09:40;;;;;;;;;;;3.70;99.90;;;;;;5085631;28;19911;-66
2022/12/08 07:12:06;;;;;;;;;;;3.70;99.90;;;;;;5092917;28;19962;-65
2022/12/08 07:14:31;;;;;;;;;;;3.70;99.90;;;;;;5070959;28;19954;-66
2022/12/08 07:16:57;;;;;;;;;;;3.70;99.90;;;;;;5076778;28;19923;-66
2022/12/08 07:19:22;;;;;;;;;;;3.70;99.90;;;;;;5092155;28;20336;-66
2022/12/08 07:21:48;;;;;;;;;;;3.70;99.90;;;;;;5104646;28;20373;-66
2022/12/08 07:24:13;;;;;;;;;;;3.70;99.90;;;;;;5097524;28;20362;-66
2022/12/08 07:26:39;;;;;;;;;;;3.70;99.90;;;;;;5080368;28;19916;-66
2022/12/08 07:29:04;;;;;;;;;;;3.70;99.90;;;;;;5093934;28;20282;-65
2022/12/08 07:31:30;;;;;;;;;;;3.70;99.90;;;;;;5077401;28;20487;-66
2022/12/08 07:33:56;;;;;;;;;;;3.70;99.90;;;;;;5087261;28;19912;-66
2022/12/08 07:36:21;;;;;;;;;;;3.70;99.90;;;;;;5076124;28;19908;-66
2022/12/08 07:38:47;;;;;;;;;;;3.70;99.90;;;;;;5096488;28;19916;-66
2022/12/08 07:41:14;;;;;;;;;;;3.60;99.90;;;;;;5099357;28;20362;-66
2022/12/08 07:43:40;;;;;;;;;;;3.60;99.90;;;;;;5096040;28;19916;-66
2022/12/08 07:46:06;;;;;;;;;;;3.60;99.90;;;;;;5090868;28;20392;-65
2022/12/08 07:48:31;;;;;;;;;;;3.60;99.90;;;;;;5085771;28;19912;-65
2022/12/08 07:50:58;;;;;;;;;;;3.60;99.90;;;;;;5095396;28;19915;-66
2022/12/08 07:53:24;;;;;;;;;;;3.60;99.90;;;;;;5090688;28;19919;-66
2022/12/08 07:55:49;;;;;;;;;;;3.60;99.90;;;;;;5095865;28;19908;-66
2022/12/08 07:58:15;;;;;;;;;;;3.60;99.90;;;;;;5077639;28;19919;-66
2022/12/08 08:00:40;;;;;;;;;;;3.60;99.90;;;;;;5098568;28;19912;-66
2022/12/08 08:03:07;;;;;;;;;;;3.60;99.90;;;;;;5095293;28;20021;-66
2022/12/08 08:05:33;;;;;;;;;;;3.60;99.90;;;;;;5090278;28;19924;-66
2022/12/08 08:07:58;;;;;;;;;;;3.50;99.90;;;;;;5084920;28;20111;-66
2022/12/08 08:10:24;;;;;;;;;;;3.50;99.90;;;;;;5086318;28;19963;-66
2022/12/08 08:12:49;;;;;;;;;;;3.50;99.90;;;;;;5094731;28;20026;-66
2022/12/08 08:15:16;;;;;;;;;;;3.50;99.90;;;;;;5082194;28;19999;-66
2022/12/08 08:17:41;;;;;;;;;;;3.50;99.90;;;;;;5088159;28;19928;-65
2022/12/08 08:20:07;;;;;;;;;;;3.40;99.90;;;;;;5094473;28;20378;-66
2022/12/08 08:22:33;;;;;;;;;;;3.40;99.90;;;;;;5094418;28;20334;-66
2022/12/08 08:24:58;;;;;;;;;;;3.40;99.90;;;;;;5094223;28;19912;-66
2022/12/08 08:27:25;;;;;;;;;;;3.40;99.90;;;;;;5093891;28;19929;-66
2022/12/08 08:29:51;;;;;;;;;;;3.40;99.90;;;;;;5094713;28;19908;-66
2022/12/08 08:32:16;;;;;;;;;;;3.40;99.90;;;;;;5092621;28;20011;-66
2022/12/08 08:34:42;;;;;;;;;;;3.40;99.90;;;;;;5094589;28;19908;-66
2022/12/08 08:37:07;;;;;;;;;;;3.40;99.90;;;;;;5093354;28;19917;-66
2022/12/08 08:39:33;;;;;;;;;;;3.40;99.90;;;;;;5089689;28;19916;-66
2022/12/08 08:41:58;;;;;;;;;;;3.40;99.90;;;;;;5085922;28;20358;-66
2022/12/08 08:44:24;;;;;;;;;;;3.40;99.90;;;;;;5096102;28;20285;-66
2022/12/08 08:46:49;;;;;;;;;;;3.40;99.90;;;;;;5092684;28;19923;-66
2022/12/08 08:49:15;;;;;;;;;;;3.40;99.90;;;;;;5080791;28;20420;-66
2022/12/08 08:51:40;;;;;;;;;;;3.40;99.90;;;;;;5084551;28;19943;-66
2022/12/08 08:54:06;;;;;;;;;;;3.40;99.90;;;;;;5083036;28;20377;-66
2022/12/08 08:56:31;;;;;;;;;;;3.40;99.90;;;;;;5094393;28;19913;-66
2022/12/08 08:58:57;;;;;;;;;;;3.30;99.90;;;;;;5093978;28;20010;-66
2022/12/08 09:01:24;;;;;;;;;;;3.30;99.90;;;;;;5092491;28;19912;-66
2022/12/08 09:03:50;;;;;;;;;;;3.30;99.90;;;;;;5093767;28;19916;-65
2022/12/08 09:06:16;;;;;;;;;;;3.40;99.90;;;;;;5086544;28;19920;-66
2022/12/08 09:08:41;;;;;;;;;;;3.30;99.90;;;;;;5085661;28;19916;-66
2022/12/08 09:11:07;;;;;;;;;;;3.40;99.90;;;;;;5078795;28;19940;-65
2022/12/08 09:13:32;;;;;;;;;;;3.30;99.90;;;;;;5092932;28;19912;-65
2022/12/08 09:16:00;;;;;;;;;;;3.40;99.90;;;;;;5084376;28;19916;-66
2022/12/08 09:18:25;;;;;;;;;;;3.40;99.90;;;;;;5081927;28;19920;-66
2022/12/08 09:20:52;;;;;;;;;;;3.40;99.90;;;;;;5090280;28;19963;-66
2022/12/08 09:23:17;;;;;;;;;;;3.40;99.90;;;;;;5085547;28;20389;-66
2022/12/08 09:25:44;;;;;;;;;;;3.40;99.90;;;;;;5091799;28;19950;-66
2022/12/08 09:28:09;;;;;;;;;;;3.40;99.90;;;;;;5090032;28;19916;-66
2022/12/08 09:30:35;;;;;;;;;;;3.50;99.90;;;;;;5085100;28;20386;-66
2022/12/08 09:33:00;;;;;;;;;;;3.50;99.90;;;;;;5087980;28;19919;-65
2022/12/08 09:35:26;;;;;;;;;;;3.50;99.90;;;;;;5084261;28;19912;-66
2022/12/08 09:37:51;;;;;;;;;;;3.50;99.90;;;;;;5078734;28;19970;-66
2022/12/08 09:40:18;;;;;;;;;;;3.50;99.90;;;;;;5094411;28;19920;-65
2022/12/08 09:42:48;;;;;;;;;;;3.40;99.90;;;;;;5093391;28;19915;-66
2022/12/08 09:45:15;;;;;;;;;;;3.50;99.90;;;;;;5089917;28;20027;-66
2022/12/08 09:47:44;;;;;;;;;;;3.50;99.90;;;;;;5093796;28;20349;-66
2022/12/08 09:50:13;;;;;;;;;;;3.60;99.90;;;;;;5087099;28;19924;-66
2022/12/08 09:52:42;;;;;;;;;;;3.60;99.90;;;;;;5092276;28;20308;-66
2022/12/08 09:55:11;;;;;;;;;;;3.60;99.90;;;;;;5089883;28;19916;-65
2022/12/08 09:57:36;;;;;;;;;;;3.50;99.90;;;;;;5058002;28;19916;-66
2022/12/08 10:00:04;;;;;;;;;;;3.50;99.90;;;;;;5088465;28;19928;-66
2022/12/08 10:02:30;;;;;;;;;;;3.50;99.90;;;;;;5084267;28;19916;-66
2022/12/08 10:04:56;;;;;;;;;;;3.50;99.90;;;;;;5082422;28;19981;-65
2022/12/08 10:07:41;;;;;;;;;;;3.50;99.90;;;;;;5083042;28;19920;-66
2022/12/08 10:10:27;;;;;;;;;;;3.40;99.90;;;;;;5079051;28;19958;-65
2022/12/08 10:15:39;;;;;;;;;;;3.30;99.90;;;;;;5068367;28;19923;-67
2022/12/08 10:18:23;;;;;;;;;;;3.30;99.90;;;;;;5070410;28;19967;-67
2022/12/08 10:20:51;;;;;;;;;;;3.30;99.90;;;;;;5044966;28;19913;-67
2022/12/08 10:23:21;;;;;;;;;;;3.20;99.90;;;;;;5048048;28;19978;-67
2022/12/08 10:25:53;;;;;;;;;;;3.20;99.90;;;;;;5051611;28;20023;-67
2022/12/08 10:28:19;;;;;;;;;;;3.10;99.90;;;;;;5051675;28;19928;-67
2022/12/08 10:30:44;;;;;;;;;;;3.20;99.90;;;;;;5052889;28;20385;-67
2022/12/08 10:33:14;;;;;;;;;;;3.20;99.90;;;;;;5048665;28;19913;-67
2022/12/08 10:35:43;;;;;;;;;;;3.10;99.90;;;;;;5053343;28;19966;-67
2022/12/08 10:38:15;;;;;;;;;;;3.10;99.90;;;;;;5047268;28;19960;-67
2022/12/08 10:40:42;;;;;;;;;;;3.20;99.90;;;;;;5043328;28;19952;-67
2022/12/08 10:43:12;;;;;;;;;;;3.20;99.90;;;;;;5063597;28;20397;-67
2022/12/08 10:45:40;;;;;;;;;;;3.20;99.90;;;;;;5043182;28;19948;-66
2022/12/08 10:48:23;;;;;;;;;;;3.10;99.90;;;;;;5053435;28;19991;-66
2022/12/08 10:50:52;;;;;;;;;;;3.20;99.90;;;;;;5049322;28;19917;-66
2022/12/08 10:53:20;;;;;;;;;;;3.20;99.90;;;;;;5054392;28;19920;-66
2022/12/08 10:55:48;;;;;;;;;;;3.10;99.90;;;;;;5045778;28;19917;-66
2022/12/08 10:58:22;;;;;;;;;;;3.10;99.90;;;;;;5048415;28;19917;-67
2022/12/08 11:00:49;;;;;;;;;;;3.10;99.90;;;;;;5046566;28;20011;-66
2022/12/08 11:03:21;;;;;;;;;;;3.10;99.90;;;;;;5053853;28;20015;-66
2022/12/08 11:05:46;;;;;;;;;;;3.10;99.90;;;;;;5048600;28;20363;-66
2022/12/08 11:08:14;;;;;;;;;;;3.20;99.90;;;;;;5047133;28;19925;-66
2022/12/08 11:10:42;;;;;;;;;;;3.10;99.90;;;;;;5049867;28;20334;-65
2022/12/08 11:13:14;;;;;;;;;;;3.10;99.90;;;;;;5046007;28;20004;-65
2022/12/08 11:15:40;;;;;;;;;;;3.10;99.90;;;;;;5068519;28;19970;-66
2022/12/08 11:18:07;;;;;;;;;;;3.10;99.90;;;;;;5064201;28;19917;-67
2022/12/08 11:20:40;;;;;;;;;;;3.10;99.90;;;;;;5062753;28;19913;-67
2022/12/08 11:23:17;;;;;;;;;;;3.20;99.90;;;;;;5062059;28;19916;-67
2022/12/08 11:25:43;;;;;;;;;;;3.20;99.90;;;;;;5060163;28;19913;-64
2022/12/08 11:28:09;;;;;;;;;;;3.20;99.90;;;;;;5053228;28;19913;-64
2022/12/08 11:30:37;;;;;;;;;;;3.20;99.90;;;;;;5054325;28;19920;-65
2022/12/08 11:33:10;;;;;;;;;;;3.20;99.90;;;;;;5038094;28;20260;-67
2022/12/08 11:35:37;;;;;;;;;;;3.30;99.90;;;;;;5052692;28;19921;-67
2022/12/08 11:38:05;;;;;;;;;;;3.40;99.90;;;;;;5045142;28;20382;-67
2022/12/08 11:40:34;;;;;;;;;;;3.40;99.90;;;;;;5058928;28;19959;-67
2022/12/08 11:43:19;;;;;;;;;;;3.50;99.90;;;;;;5055650;28;19916;-67
2022/12/08 11:45:48;;;;;;;;;;;3.50;99.90;;;;;;5052626;28;19925;-67
2022/12/08 11:48:17;;;;;;;;;;;3.60;99.90;;;;;;5054823;28;19913;-67
2022/12/08 11:50:49;;;;;;;;;;;3.60;99.90;;;;;;5049474;28;19917;-65
2022/12/08 11:53:19;;;;;;;;;;;3.70;99.90;;;;;;5054778;28;20272;-65
2022/12/08 11:55:49;;;;;;;;;;;3.70;99.90;;;;;;5054172;28;19913;-67
2022/12/08 11:58:18;;;;;;;;;;;3.80;99.90;;;;;;5051631;28;19913;-64
2022/12/08 12:00:43;;;;;;;;;;;3.70;99.90;;;;;;5052464;28;19914;-66
2022/12/08 12:03:20;;;;;;;;;;;3.80;99.90;;;;;;5052759;28;19996;-65
2022/12/08 12:06:05;;;;;;;;;;;3.70;99.90;;;;;;5055317;28;20279;-67
2022/12/08 12:08:46;;;;;;;;;;;3.80;99.90;;;;;;5052345;28;19917;-68
2022/12/08 12:12:11;;;;;;;;;;;3.80;99.90;;;;;;5054057;28;19954;-64
2022/12/08 12:14:16;;;;;;;;;;;3.80;99.90;;;;;;5051523;28;19927;-64
2022/12/08 12:16:48;;;;;;;;;;;3.90;99.90;;;;;;5054461;28;19908;-67
2022/12/08 12:19:15;;;;;;;;;;;3.90;99.90;;;;;;5050587;28;19956;-65
2022/12/08 12:21:44;;;;;;;;;;;4.00;99.90;;;;;;5073841;28;20365;-64
2022/12/08 12:24:29;;;;;;;;;;;4.10;99.90;;;;;;5063555;28;20293;-65
2022/12/08 12:26:57;;;;;;;;;;;4.10;99.90;;;;;;5053308;28;20396;-65
2022/12/08 12:29:25;;;;;;;;;;;4.10;99.90;;;;;;5053712;28;19956;-65
2022/12/08 12:31:53;;;;;;;;;;;4.10;99.90;;;;;;5049420;28;19927;-65
2022/12/08 12:34:22;;;;;;;;;;;4.10;99.90;;;;;;5053028;28;20397;-65
2022/12/08 12:36:49;;;;;;;;;;;4.10;99.90;;;;;;5054144;28;20297;-65
2022/12/08 12:39:17;;;;;;;;;;;4.10;99.90;;;;;;5051959;28;19916;-64
2022/12/08 12:41:46;;;;;;;;;;;4.10;99.90;;;;;;5050632;28;19921;-64
2022/12/08 12:44:14;;;;;;;;;;;4.20;99.90;;;;;;5055058;28;19999;-65
2022/12/08 12:46:52;;;;;;;;;;;4.10;99.90;;;;;;5053511;28;19913;-65
2022/12/08 12:49:37;;;;;;;;;;;4.10;99.90;;;;;;5050470;28;20286;-65
2022/12/08 12:52:03;;;;;;;;;;;4.10;99.90;;;;;;5055101;28;19925;-65
2022/12/08 12:54:29;;;;;;;;;;;4.10;99.90;;;;;;5051385;28;20367;-65
2022/12/08 12:56:55;;;;;;;;;;;4.20;99.90;;;;;;5052611;28;19919;-66
2022/12/08 12:59:42;;;;;;;;;;;4.20;99.90;;;;;;5053951;28;20394;-65
2022/12/08 13:02:16;;;;;;;;;;;4.10;99.90;;;;;;5051901;28;20007;-65
2022/12/08 13:04:44;;;;;;;;;;;4.10;99.90;;;;;;5054517;28;20445;-65
2022/12/08 13:07:18;;;;;;;;;;;4.10;99.90;;;;;;5061316;28;19915;-65
2022/12/08 13:09:44;;;;;;;;;;;4.10;99.90;;;;;;5064816;28;19912;-66
2022/12/08 13:12:11;;;;;;;;;;;4.10;99.90;;;;;;5053471;28;19909;-65
2022/12/08 13:14:43;;;;;;;;;;;4.10;99.90;;;;;;5051458;28;19956;-65
2022/12/08 13:17:10;;;;;;;;;;;4.10;99.90;;;;;;5051746;28;19966;-66
2022/12/08 13:19:37;;;;;;;;;;;4.10;99.90;;;;;;5057565;28;19917;-66
2022/12/08 13:22:02;;;;;;;;;;;4.10;99.90;;;;;;5052014;28;19913;-65
2022/12/08 13:24:30;;;;;;;;;;;4.10;99.90;;;;;;5053042;28;19940;-66
2022/12/08 13:29:41;;;;;;;;;;;4.10;99.90;;;;;;5089139;27;20400;-66
2022/12/08 13:32:09;;;;;;;;;;;4.10;99.90;;;;;;5074281;28;20011;-66
2022/12/08 13:34:55;;;;;;;;;;;4.00;99.90;;;;;;5065907;28;19916;-66
2022/12/08 13:37:28;;;;;;;;;;;4.10;99.90;;;;;;5050139;28;19913;-66
2022/12/08 13:39:59;;;;;;;;;;;4.10;99.90;;;;;;5075375;28;20281;-66
2022/12/08 13:42:43;;;;;;;;;;;4.00;99.90;;;;;;5102701;28;19912;-66
2022/12/08 13:48:11;;;;;;;;;;;4.00;99.90;;;;;;5070591;28;19912;-66
2022/12/08 13:50:42;;;;;;;;;;;4.00;99.90;;;;;;5064045;28;19913;-67
2022/12/08 13:53:25;;;;;;;;;;;3.90;99.90;;;;;;5059436;28;19913;-66
2022/12/08 13:55:53;;;;;;;;;;;4.00;99.90;;;;;;5060672;28;19967;-66
2022/12/08 13:58:23;;;;;;;;;;;4.00;99.90;;;;;;5051064;28;20379;-67
2022/12/08 14:00:55;;;;;;;;;;;3.90;99.90;;;;;;5067074;28;19942;-66
2022/12/08 14:03:20;;;;;;;;;;;3.90;99.90;;;;;;5066723;28;20011;-67
2022/12/08 14:05:46;;;;;;;;;;;3.80;99.90;;;;;;5063895;28;20029;-66
2022/12/08 14:08:21;;;;;;;;;;;3.80;99.90;;;;;;5067500;28;19923;-67
2022/12/08 14:10:51;;;;;;;;;;;3.70;99.90;;;;;;5061838;28;19913;-66
2022/12/08 14:13:16;;;;;;;;;;;3.70;99.90;;;;;;5055008;28;19912;-67
2022/12/08 14:15:42;;;;;;;;;;;3.70;99.90;;;;;;5064087;28;19972;-66
2022/12/08 14:18:21;;;;;;;;;;;3.60;99.90;;;;;;5065466;28;20046;-66
2022/12/08 14:20:57;;;;;;;;;;;3.60;99.90;;;;;;5065885;28;20370;-66
2022/12/08 14:23:22;;;;;;;;;;;3.60;99.90;;;;;;5063664;28;19950;-66
2022/12/08 14:25:48;;;;;;;;;;;3.60;99.90;;;;;;5065725;28;19916;-66
2022/12/08 14:28:13;;;;;;;;;;;3.60;99.90;;;;;;5067308;28;19920;-66
2022/12/08 14:30:39;;;;;;;;;;;3.60;99.90;;;;;;5069028;28;20278;-66
2022/12/08 14:33:10;;;;;;;;;;;3.60;99.90;;;;;;5054246;28;19927;-66
2022/12/08 14:35:36;;;;;;;;;;;3.60;99.90;;;;;;5069242;28;19938;-66
2022/12/08 14:38:03;;;;;;;;;;;3.60;99.90;;;;;;5057361;28;20363;-66
2022/12/08 14:40:33;;;;;;;;;;;3.60;99.90;;;;;;5053393;28;20367;-66
2022/12/08 14:48:24;;;;;;;;;;;3.50;99.90;;;;;;5090188;27;19927;-64
2022/12/08 14:51:10;;;;;;;;;;;3.50;99.90;;;;;;5072955;28;19935;-64
2022/12/08 14:53:38;;;;;;;;;;;3.50;99.90;;;;;;5112407;28;20004;-65
2022/12/08 14:56:06;;;;;;;;;;;3.50;99.90;;;;;;5070718;28;19921;-65
2022/12/08 14:58:31;;;;;;;;;;;3.50;99.90;;;;;;5071626;28;20424;-65